Search flights

Malaga Airport, Malaga (LEMG)

Airport Weather & NOTAM's

METAR for:LEMG (Málaga Arpt, AN, ES)
Text:LEMG 220030Z 08012G23KT 040V140 CAVOK 22/18 Q1013 NOSIG
Conditions at:0030 UTC 22 Jul 2024
Temperature: 22.0°C ( 72°F)
Dewpoint: 18.0°C ( 64°F) [RH = 78%]
Pressure (altimeter):29.91 inches Hg (1013.0 mb)
Winds:from the E (80 degrees) at 14 MPH (12 knots; 6.2 m/s) gusting to 26 MPH (23 knots; 11.8 m/s)
Visibility:6 or more sm (10+ km)
Ceiling:ceiling and visibility are OK
Clouds:unknown
TAF for:LEMG (Málaga Arpt, AN, ES) issued at 2300 UTC 21 Jul 2024
Text:TAF LEMG 212300Z 2200/2224 27010KT CAVOK TX29/2215Z TN24/2205Z
Forecast period:0000 UTC 22 July 2024 to 0000 UTC 23 July 2024
Forecast type:FROM: standard forecast or significant change
Winds:from the W (270 degrees) at 12 MPH (10 knots; 5.1 m/s)
Visibility:6 or more sm (10+ km)
Clouds:missing
Temperature:MAX 29°C at 1500 UTC 22 Jul 2024
Temperature:MIN 24°C at 0500 UTC 22 Jul 2024
Text:BECMG 2200/2202 10010KT
Forecast period:0000 UTC 22 July 2024 to 0000 UTC 23 July 2024
Forecast type:BECOMING: Conditions expected to become as follows by 0200 UTC 22 July 2024
Winds:from the E (100 degrees) at 12 MPH (10 knots; 5.1 m/s)
Visibility:6 or more sm (10+ km)
Clouds:missing
Text:PROB40
Forecast period:0300 to 0700 UTC 22 July 2024
Forecast type:TEMPORARY: The following changes expected for less than half the time period
Ceiling:1000 feet AGL
Clouds:broken clouds at 1000 feet AGL

Live Departures & Arrivals

There are currently no arrivals or departures for this airport.

Departures History (last 12 months)

Flight No. Dest. Aircraft Date
BXS1702 LGAV PMDG 737-9... 2024-07-21 15:06:29
BXS1702 GCTS PMDG 737-8... 2024-07-18 14:58:22
BXS1702 LIPZ PMDG 737-9... 2024-07-01 14:29:40
BXS1702 LPFR PMDG DC-6B... 2024-06-28 05:06:15
BXS2118 LICJ A320neo Ib... 2024-06-22 18:58:32
BXS1767 LEGR PMDG DC-6A... 2024-06-21 12:27:01
BXS1702 LPPR PMDG DC-6A... 2024-06-15 14:14:07
BXS1009 EDDM A300 Passe... 2024-06-01 16:35:10
BXS1702 LIRN PMDG 737-8... 2024-05-19 15:34:11
BXS1010 LEMH Fenix A320... 2024-05-16 15:31:07
BXS1702 EDDB PMDG 737-8... 2024-05-13 05:34:18
BXS1702 GCRR PMDG 737-8... 2024-05-05 05:27:31
BXS1702 GCFV PMDG 737-8... 2024-04-28 07:01:13
BXS1702 LEBL PMDG 737-9... 2024-04-24 15:15:02
BXS1010 GCFV PMDG 737-6... 2024-04-21 07:49:50
BXS1702 LEBL PMDG 737-7... 2024-04-19 04:46:18
{}BXS2156 LEGE PMDG 737-8... 2024-03-16 07:19:16
BXS1702 LEMH PMDG 737-8... 2024-03-09 08:25:32
BXS1702 LIRF PMDG 737-7... 2024-02-25 06:18:34
BXS1702 LEBL PMDG 737-7... 2024-02-22 06:24:56
2015 GCRR A320 EC... 2024-02-21 16:37:00
BXS1702 LOWW PMDG 737-7... 2024-02-13 14:45:51
BXS1702 GCFV PMDG 737-7... 2024-02-03 15:39:44
BXS1010 LEMH Airbus A32... 2024-02-01 16:40:16
BXS2543 LELI Cirrus SR2... 2024-01-23 17:38:03
BXS1702 LFLL PMDG 737-7... 2024-01-17 15:39:16
BXS1702 LFPO PMDG 737-7... 2024-01-15 06:58:56
BXS1767 LXGB Beechcraft... 2023-12-29 14:15:36
BXS1702 LEST PMDG 737-7... 2023-12-25 16:49:49
{}BXS2156 LEMG FenixA320_... 2023-12-19 16:06:31
BXS1010 GCLP Airbus A33... 2023-12-02 08:53:47
{}1702 GCTS PMDG 737-7... 2023-11-22 15:43:38
BXS1702 LEBL PMDG 737-7... 2023-11-18 15:01:53
BXS1009 LEBB Airbus A32... 2023-11-04 18:31:16
BXS1009 LEXJ Airbus A32... 2023-11-04 14:38:00
BXS1702 LEPA PMDG 737-7... 2023-11-02 06:33:24
BXS1010 LECO Airbus A32... 2023-10-30 16:54:57
BXS1005 LECO PMDG 737-8... 2023-10-30 17:04:21
BXS1702 LECO PMDG 737-7... 2023-10-28 05:20:51
{}BXS2156 LEAM FenixA320_... 2023-10-26 16:39:03
BXS1702 LEBL Cessna CJ4... 2023-10-18 15:08:53
BXS1005 GCFV PMDG 737-8... 2023-10-12 15:49:39
BXS2421 LEGR TBM 930 01... 2023-10-07 18:54:18
BXS1702 GCTS PMDG 737-7... 2023-10-07 05:34:11
BXS1010 LEGR DA62 Asobo 2023-10-07 08:08:05
{}BXS2156 LEIB FenixA320_... 2023-09-28 16:23:34
BXS1702 LFMN PMDG 737-7... 2023-09-26 05:08:43
{}BXS2156 LESA Airbus A32... 2023-09-19 09:43:49
BXS2118 GCTS Airbus A32... 2023-09-09 19:49:08
BXS1702 LEGE Airbus A32... 2023-09-07 13:58:20
BXS1702 LEVC TBM 930 As... 2023-09-03 05:36:52
BXS1702 GCTS FenixA320... 2023-08-30 14:09:04
BXS2149 LEMD PMDG 737-8... 2023-08-17 09:00:05
BXS1702 LFBO PMDG 737-7... 2023-08-07 14:18:43

Arrivals History (last 12 months)

Flight No. Origin Aircraft Date
BXS2523 LEGR Tecnam P20... 2024-07-21 17:38:09
BXS1767 LXGB DA 62 Kenm... 2024-07-17 15:47:54
BXS1702 LFPO PMDG 737-8... 2024-07-17 17:12:02
BXS1767 LEGR Curtiss C4... 2024-07-13 08:12:05
BXS1702 LPMA Airbus A32... 2024-06-29 17:50:54
BXS1702 LHBP PMDG 737-9... 2024-06-27 18:19:28
BXS2118 LEBB A320neo Ib... 2024-06-22 13:41:21
BXS1702 GCFV PMDG 737-9... 2024-06-15 07:42:28
{}BXS2156 LEMD PMDG 737-8... 2024-05-24 17:09:58
BXS1702 LIRN PMDG 737-8... 2024-05-22 07:39:04
BXS1702 DTTA PMDG 737-8... 2024-05-19 07:20:01
BXS1009 EIDW Airbus A32... 2024-05-18 22:42:32
BXS1702 GCFV PMDG 737-8... 2024-05-12 08:07:53
BXS1702 LSGG PMDG 737-8... 2024-05-04 07:37:17
BXS1702 LGAV PMDG 737-8... 2024-04-27 17:42:35
BXS1702 LPMA PMDG 737-9... 2024-04-23 16:48:54
BXS1702 LFPG PMDG 737-8... 2024-04-18 07:57:46
BXS1702 LEBL PMDG 737-8... 2024-03-08 07:31:08
BXS1702 GCFV PMDG 737-7... 2024-02-24 08:25:15
BXS1767 LPPT TBM 930 Ke... 2024-02-23 16:39:23
{}BXS2156 GMTT PMDG 737-8... 2024-02-22 19:36:35
BXS1702 LSZH PMDG 737-7... 2024-02-21 08:59:03
BXS1702 EIDW PMDG 737-7... 2024-02-12 17:18:51
BXS1702 LOWW PMDG 737-7... 2024-02-03 09:50:41
BXS1010 LPMA Airbus A32... 2024-01-31 18:49:25
BXS1005 LPMA PMDG 737-6... 2024-01-31 18:52:48
{}BXS2156 LEJR PMDG 737-8... 2024-01-26 17:31:50
BXS1702 LEST PMDG 737-7... 2024-01-16 16:37:09
BXS1702 LFPO PMDG 737-7... 2024-01-16 09:08:00
BXS1702 LIPZ PMDG 737-7... 2024-01-14 11:24:07
{}PMDG738 LEAM PMDG 737-8... 2024-01-13 17:51:40
{}BXS2156 LEAB FenixA320_... 2024-01-13 18:28:24
BXS2543 LEAM FenixA320_... 2024-01-13 17:53:32
BXS2148 GEML Spanish Ai... 2024-01-13 17:43:36
BXS2118 LEAM ATR 72 IBE... 2024-01-13 18:24:02
BXS1836 LEJR HJET HA420... 2024-01-13 18:14:41
BXS1010 LEVC PMDG 737-8... 2024-01-13 18:39:28
BXS1005 LEVC PMDG 737-8... 2024-01-13 18:06:20
BXS1702 LEMH PMDG 737-7... 2023-12-24 17:23:51
{}BXS2156 LEMG FenixA320_... 2023-12-19 18:36:24
{}BXS2156 LEZG PMDG 737-8... 2023-12-17 12:36:03
BXS2543 LEJR Carenado C... 2023-12-17 18:25:05
{}BXS2156 LEZL PMDG 737-8... 2023-12-16 19:21:18
BXS1767 LPPT Cessna 208... 2023-12-04 16:01:15
BXS1702 LIEE PMDG 737-7... 2023-11-22 08:26:13
BXS1010 GCFV PMDG 737-8... 2023-11-05 11:14:24
BXS1009 LEPP PMDG 737-7... 2023-11-05 18:33:09
BXS1009 LEXJ Airbus A32... 2023-11-04 18:22:43
BXS1009 LELN Airbus A32... 2023-11-04 14:00:41
BXS1702 LPMA PMDG 737-7... 2023-11-01 17:08:45
BXS1010 GCRR PMDG 737-7... 2023-10-29 18:00:48
BXS1702 LGAV PMDG 737-7... 2023-10-27 18:06:43
{}BXS2156 LEBL FenixA320_... 2023-10-07 17:26:58
BXS2421 LEBL PMDG 737-8... 2023-10-07 18:26:11
BXS1010 LEBL Airbus A32... 2023-10-07 17:26:21
BXS1005 LEBL PMDG 737-8... 2023-10-07 17:35:16
BXS1702 LIPZ PMDG 737-7... 2023-10-06 16:59:15
BXS1010 LEBL PMDG 737-7... 2023-10-04 17:58:31
BXS1702 LIPZ PMDG 737-7... 2023-09-25 16:35:44
{}BXS2156 LEPA FenixA320_... 2023-09-07 16:57:10
BXS1702 LFMT PMDG 737-7... 2023-09-07 10:53:11
BXS1702 LPPT Cessna 208... 2023-09-01 06:44:43
BXS1702 LIML PMDG 737-7... 2023-08-30 11:05:52
BXS2421 LFMN PMDG 737-8... 2023-08-27 20:04:49
BXS2118 GCFV a320-liver... 2023-08-19 23:49:49
BXS2149 LEBL PMDG 737-8... 2023-08-15 09:10:54
BXS1702 EIDW PMDG 737-7... 2023-08-06 17:54:32
BXS1836 LEXJ HJET HA420... 2023-07-23 20:51:36

Runway Information (Airport elevation: 39ft)

Runway 12 Length 10,442ft Width 140ft Elevation 39ft Surface Asphalt Heading 118
Runway 13 Length 10,511ft Width 158ft Elevation 39ft Surface Asphalt Heading 132
Runway 30 Length 10,442ft Width 140ft Elevation 39ft Surface Asphalt Heading 298
Runway 31 Length 10,511ft Width 158ft Elevation 39ft Surface Asphalt Heading 312

Airport Frequencies

Type APP/DEP Frequency 118.455 Mhz
Type APP/DEP Frequency 121.030 Mhz
Type APP/DEP Frequency 123.855 Mhz
Type APP/DEP Frequency 125.955 Mhz
Type ATIS Frequency 120.380 Mhz
Type ATIS Frequency 124.480 Mhz
Type Clearance Frequency 121.880 Mhz
Type D Frequency 118.455 Mhz
Type Ground Frequency 121.705 Mhz
Type Ground Frequency 121.955 Mhz
Type Tower Frequency 118.155 Mhz
Type Tower Frequency 118.780 Mhz
Type Tower Frequency 122.100 Mhz
Type Tower Frequency 124.780 Mhz
Type Ground Frequency 121.705 Mhz
Type Ground Frequency 121.955 Mhz
Type Tower Frequency 118.150 Mhz

Airport Navaids

Type VOR-DME Ident MAR Frequency 112600 Khz
Type VOR-DME Ident MGA Frequency 112000 Khz
Type VOR-DME Ident MLG Frequency 113550 Khz
Type NDB Ident RMA Frequency 330 Khz